Time;durP1;ratioP1;P1;durP2;ratioP2;P2;SDS_P1;SDS_P2;PMS_P1;PMS_P2;Temp;Humidity;BMP_temperature;BMP_pressure;BME280_temperature;BME280_humidity;BME280_pressure;Samples;Min_cycle;Max_cycle;Signal;HPM_P1;HPM_P2
2022/01/20 00:00:44;;;;;;;5.13;4.20;;;6.30;99.90;;;;;;5035666;28;20241;-63
2022/01/20 00:03:15;;;;;;;4.97;3.67;;;6.20;99.90;;;;;;5038287;28;20320;-63
2022/01/20 00:06:16;;;;;;;4.83;3.80;;;6.10;99.90;;;;;;5034365;28;20206;-63
2022/01/20 00:08:38;;;;;;;5.20;4.00;;;6.20;99.90;;;;;;5032940;28;20206;-62
2022/01/20 00:27:38;;;;;;;4.73;3.93;;;6.10;99.90;;;;;;5032353;28;20209;-63
2022/01/20 00:30:29;;;;;;;5.60;4.13;;;6.20;99.90;;;;;;5032221;28;20206;-63
2022/01/20 00:33:02;;;;;;;4.40;4.00;;;6.30;99.90;;;;;;5032552;28;20568;-63
2022/01/20 00:35:31;;;;;;;5.40;4.27;;;6.30;99.90;;;;;;5032430;28;20206;-63
2022/01/20 00:37:57;;;;;;;5.33;4.20;;;6.30;99.90;;;;;;5032550;28;20209;-64
2022/01/20 00:40:24;;;;;;;5.20;3.60;;;6.30;99.90;;;;;;5032059;28;20246;-63
2022/01/20 00:42:52;;;;;;;5.20;4.10;;;6.30;99.90;;;;;;5032042;28;20655;-63
2022/01/20 00:45:19;;;;;;;4.53;3.77;;;6.30;99.90;;;;;;5032434;28;20205;-64
2022/01/20 00:47:46;;;;;;;4.73;3.90;;;6.20;99.90;;;;;;5032016;28;20606;-63
2022/01/20 00:50:13;;;;;;;8.87;4.10;;;6.30;99.90;;;;;;5031913;28;20213;-64
2022/01/20 00:52:41;;;;;;;16.47;9.83;;;6.30;99.90;;;;;;5032080;28;20213;-63
2022/01/20 00:55:08;;;;;;;9.60;6.73;;;6.40;99.90;;;;;;5032051;28;20255;-63
2022/01/20 00:57:35;;;;;;;6.53;5.23;;;6.40;99.90;;;;;;5032015;28;20280;-63
2022/01/20 01:00:05;;;;;;;5.73;4.60;;;6.40;99.90;;;;;;5032183;28;20217;-63
2022/01/20 01:02:33;;;;;;;6.17;3.80;;;6.50;99.90;;;;;;5032155;28;20395;-63
2022/01/20 01:05:00;;;;;;;4.77;3.83;;;6.50;99.90;;;;;;5033758;28;20316;-63
2022/01/20 01:10:19;;;;;;;4.27;3.50;;;6.50;99.90;;;;;;5035970;28;20201;-64
2022/01/20 01:12:51;;;;;;;4.70;3.70;;;6.50;99.90;;;;;;5036239;28;20202;-64
2022/01/20 01:15:23;;;;;;;4.90;3.43;;;6.60;99.90;;;;;;5036010;28;20325;-64
2022/01/20 01:20:56;;;;;;;4.20;3.70;;;6.40;99.90;;;;;;5036260;28;20205;-64
2022/01/20 01:23:21;;;;;;;3.77;3.30;;;6.20;99.90;;;;;;5035421;28;20368;-64
2022/01/20 01:25:48;;;;;;;3.67;2.90;;;6.20;99.90;;;;;;5035750;28;20210;-64
2022/01/20 01:28:16;;;;;;;4.30;3.53;;;6.30;99.90;;;;;;5035646;28;20210;-64
2022/01/20 01:31:08;;;;;;;4.40;3.50;;;6.40;99.90;;;;;;5035433;28;20210;-64
2022/01/20 01:33:37;;;;;;;3.30;2.90;;;6.40;99.90;;;;;;5035595;28;20230;-64
2022/01/20 01:36:06;;;;;;;4.30;3.10;;;6.40;99.90;;;;;;5035939;28;20221;-64
2022/01/20 01:38:41;;;;;;;3.90;3.00;;;6.40;99.90;;;;;;5035594;28;20218;-63
2022/01/20 01:41:11;;;;;;;3.70;3.10;;;6.40;99.90;;;;;;5035464;28;20316;-64
2022/01/20 01:43:41;;;;;;;3.57;3.03;;;6.50;99.90;;;;;;5035800;28;20254;-64
2022/01/20 01:46:09;;;;;;;5.47;2.83;;;6.40;99.90;;;;;;5035745;28;20589;-64
2022/01/20 01:48:36;;;;;;;4.40;2.97;;;6.40;99.90;;;;;;5035448;28;20206;-64
2022/01/20 01:51:03;;;;;;;3.40;2.80;;;6.40;99.90;;;;;;5035017;28;20213;-64
2022/01/20 01:53:30;;;;;;;3.83;2.80;;;6.40;99.90;;;;;;5035061;28;20587;-63
2022/01/20 01:55:57;;;;;;;2.80;2.50;;;6.40;99.90;;;;;;5034983;28;20256;-63
2022/01/20 01:58:23;;;;;;;4.13;2.50;;;6.40;99.90;;;;;;5035210;28;20206;-63
2022/01/20 02:00:50;;;;;;;2.50;2.30;;;6.40;99.90;;;;;;5035085;28;20209;-64
2022/01/20 02:03:19;;;;;;;2.50;2.27;;;6.50;99.90;;;;;;5034873;28;20234;-63
2022/01/20 02:06:01;;;;;;;2.90;2.47;;;6.50;99.90;;;;;;5034990;28;20253;-63
2022/01/20 02:08:35;;;;;;;5.30;2.37;;;6.50;99.90;;;;;;5034898;28;20206;-64
2022/01/20 02:19:30;;;;;;;2.73;1.93;;;6.50;99.90;;;;;;5008779;28;20233;-64
2022/01/20 02:22:02;;;;;;;2.60;2.03;;;6.40;99.90;;;;;;5034604;28;20256;-63
2022/01/20 02:24:29;;;;;;;3.07;2.37;;;6.20;99.90;;;;;;5034652;28;20233;-63
2022/01/20 02:26:57;;;;;;;2.40;2.20;;;6.30;99.90;;;;;;5034490;28;20209;-64
2022/01/20 02:29:24;;;;;;;2.10;1.87;;;6.40;99.90;;;;;;5034544;28;20260;-64
2022/01/20 02:31:54;;;;;;;3.10;2.10;;;6.40;99.90;;;;;;5036447;28;20206;-64
2022/01/20 02:34:23;;;;;;;2.27;2.07;;;6.40;99.90;;;;;;5035390;28;20254;-65
2022/01/20 02:36:49;;;;;;;3.27;1.90;;;6.50;99.90;;;;;;5034655;28;20209;-63
2022/01/20 02:39:43;;;;;;;2.37;2.10;;;6.60;99.90;;;;;;5034455;28;20209;-64
2022/01/20 02:45:01;;;;;;;3.63;1.73;;;6.50;99.90;;;;;;5034376;28;20218;-64
2022/01/20 02:47:30;;;;;;;2.00;1.80;;;6.50;99.90;;;;;;5034978;28;20256;-63
2022/01/20 02:49:57;;;;;;;2.20;1.67;;;6.50;99.90;;;;;;5034378;28;20202;-64
2022/01/20 02:52:25;;;;;;;3.03;1.80;;;6.60;99.90;;;;;;5036400;28;20552;-63
2022/01/20 02:54:54;;;;;;;2.40;1.80;;;6.60;99.90;;;;;;5038682;28;20234;-64
2022/01/20 02:57:21;;;;;;;2.17;1.67;;;6.60;99.90;;;;;;5035706;28;20253;-64
2022/01/20 02:59:48;;;;;;;2.40;1.40;;;6.70;99.90;;;;;;5035649;28;20264;-64
2022/01/20 03:02:14;;;;;;;2.00;1.60;;;6.70;99.90;;;;;;5035375;28;20290;-64
2022/01/20 03:04:41;;;;;;;1.60;1.50;;;6.70;99.90;;;;;;5035183;28;20234;-64
2022/01/20 03:07:08;;;;;;;1.50;1.40;;;6.60;99.90;;;;;;5035145;28;20202;-64
2022/01/20 03:09:35;;;;;;;2.00;1.67;;;6.60;99.90;;;;;;5034706;28;20666;-63
2022/01/20 03:12:05;;;;;;;1.90;1.67;;;6.60;99.90;;;;;;5034070;28;20668;-63
2022/01/20 03:14:31;;;;;;;3.33;1.67;;;6.60;99.90;;;;;;5033584;28;20260;-63
2022/01/20 03:16:58;;;;;;;2.27;1.50;;;6.70;99.90;;;;;;5033610;28;20206;-64
2022/01/20 03:19:25;;;;;;;1.70;1.50;;;6.70;99.90;;;;;;5033417;28;20207;-64
2022/01/20 03:21:52;;;;;;;1.73;1.60;;;6.80;99.90;;;;;;5033524;28;20210;-64
2022/01/20 03:24:18;;;;;;;1.80;1.57;;;6.80;99.90;;;;;;5033491;28;20232;-63
2022/01/20 03:26:45;;;;;;;2.23;1.80;;;6.80;99.90;;;;;;5033464;28;20217;-64
2022/01/20 03:29:13;;;;;;;1.93;1.70;;;6.80;99.90;;;;;;5032358;28;20210;-64
2022/01/20 03:31:40;;;;;;;4.40;1.80;;;6.70;99.90;;;;;;5032989;28;20209;-63
2022/01/20 03:34:07;;;;;;;1.87;1.70;;;6.70;99.90;;;;;;5033294;28;20233;-64
2022/01/20 03:36:34;;;;;;;2.10;1.90;;;6.60;99.90;;;;;;5033670;28;20226;-64
2022/01/20 03:39:01;;;;;;;2.13;1.93;;;6.60;99.90;;;;;;5033664;28;20210;-64
2022/01/20 03:41:27;;;;;;;1.57;1.47;;;6.70;99.90;;;;;;5033019;28;20582;-63
2022/01/20 03:43:54;;;;;;;1.97;1.77;;;6.70;99.90;;;;;;5033068;28;20226;-63
2022/01/20 03:46:23;;;;;;;1.77;1.67;;;6.70;99.90;;;;;;5032955;28;20210;-63
2022/01/20 03:48:51;;;;;;;2.00;1.90;;;6.70;99.90;;;;;;5033781;28;20579;-64
2022/01/20 03:51:21;;;;;;;2.03;1.73;;;6.70;99.90;;;;;;5036857;28;20260;-64
2022/01/20 03:53:49;;;;;;;2.17;1.90;;;6.60;99.90;;;;;;5033991;28;20222;-64
2022/01/20 03:56:16;;;;;;;3.20;1.87;;;6.60;99.90;;;;;;5032766;28;20260;-64
2022/01/20 03:58:43;;;;;;;2.27;1.60;;;6.60;99.90;;;;;;5032927;28;20213;-63
2022/01/20 04:01:10;;;;;;;4.60;1.80;;;6.60;99.90;;;;;;5032727;28;20264;-64
2022/01/20 04:03:38;;;;;;;2.17;1.50;;;6.60;99.90;;;;;;5032635;28;20245;-63
2022/01/20 04:06:05;;;;;;;2.50;1.80;;;6.60;99.90;;;;;;5032804;28;20206;-63
2022/01/20 04:08:34;;;;;;;1.63;1.50;;;6.60;99.90;;;;;;5033067;28;20264;-63
2022/01/20 04:11:04;;;;;;;2.53;1.60;;;6.70;99.90;;;;;;5032381;28;20206;-65
2022/01/20 04:13:32;;;;;;;1.87;1.67;;;6.60;99.90;;;;;;5032301;28;20638;-63
2022/01/20 04:16:00;;;;;;;2.57;1.80;;;6.60;99.90;;;;;;5032591;28;20265;-63
2022/01/20 04:18:28;;;;;;;2.00;1.90;;;6.60;99.90;;;;;;5032734;28;20210;-63
2022/01/20 04:20:56;;;;;;;1.90;1.70;;;6.60;99.90;;;;;;5032236;28;20210;-63
2022/01/20 04:23:23;;;;;;;4.60;2.00;;;6.60;99.90;;;;;;5032410;28;20241;-65
2022/01/20 04:25:50;;;;;;;2.23;1.80;;;6.60;99.90;;;;;;5032238;28;20210;-64
2022/01/20 04:28:17;;;;;;;2.57;1.87;;;6.60;99.90;;;;;;5032490;28;20263;-64
2022/01/20 04:30:44;;;;;;;2.70;2.20;;;6.60;99.90;;;;;;5032061;28;20574;-64
2022/01/20 04:33:10;;;;;;;2.20;2.00;;;6.70;99.90;;;;;;5032165;28;20253;-64
2022/01/20 04:35:37;;;;;;;2.37;2.17;;;6.70;99.90;;;;;;5032241;28;20572;-64
2022/01/20 04:38:06;;;;;;;3.53;2.23;;;6.60;99.90;;;;;;5032291;28;20206;-64
2022/01/20 04:40:38;;;;;;;3.70;2.10;;;6.60;99.90;;;;;;5031565;28;20301;-64
2022/01/20 04:43:05;;;;;;;2.90;2.20;;;6.50;99.90;;;;;;5032167;28;20234;-64
2022/01/20 04:45:37;;;;;;;4.57;2.20;;;6.50;99.90;;;;;;5032171;28;20198;-64
2022/01/20 04:48:16;;;;;;;2.77;2.17;;;6.60;99.90;;;;;;5032060;28;20631;-63
2022/01/20 04:58:54;;;;;;;2.97;2.50;;;6.50;99.90;;;;;;5032118;28;20225;-64
2022/01/20 05:01:21;;;;;;;2.97;2.47;;;6.50;99.90;;;;;;5031653;28;20214;-64
2022/01/20 05:03:48;;;;;;;3.23;2.57;;;6.50;99.90;;;;;;5032657;28;20244;-64
2022/01/20 05:06:15;;;;;;;2.77;2.27;;;6.40;99.90;;;;;;5032136;28;20202;-64
2022/01/20 05:08:43;;;;;;;3.40;2.60;;;6.40;99.90;;;;;;5032086;28;20242;-64
2022/01/20 05:11:12;;;;;;;2.80;2.50;;;6.40;99.90;;;;;;5031842;28;20217;-64
2022/01/20 05:13:40;;;;;;;2.63;2.40;;;6.30;99.90;;;;;;5031980;28;20272;-64
2022/01/20 05:16:07;;;;;;;2.63;2.20;;;6.30;99.90;;;;;;5031682;28;20359;-64
2022/01/20 05:18:34;;;;;;;2.90;2.30;;;6.30;99.90;;;;;;5032148;28;20210;-64
2022/01/20 05:21:01;;;;;;;5.60;2.93;;;6.60;99.90;;;;;;5031664;28;20206;-64
2022/01/20 05:23:28;;;;;;;3.07;2.43;;;6.40;99.90;;;;;;5031738;28;20233;-64
2022/01/20 05:25:56;;;;;;;2.50;1.90;;;6.50;99.90;;;;;;5031702;28;20610;-64
2022/01/20 05:28:23;;;;;;;3.03;2.13;;;6.50;99.90;;;;;;5031818;28;20210;-64
2022/01/20 05:30:50;;;;;;;2.50;2.10;;;6.40;99.90;;;;;;5033922;28;20206;-64
2022/01/20 05:33:17;;;;;;;2.37;2.17;;;6.30;99.90;;;;;;5035542;28;20226;-64
2022/01/20 05:35:43;;;;;;;4.47;2.80;;;6.30;99.90;;;;;;5034829;28;20306;-64
2022/01/20 05:38:12;;;;;;;2.50;2.10;;;6.30;99.90;;;;;;5032587;28;20206;-64
2022/01/20 05:40:38;;;;;;;3.57;2.60;;;6.40;99.90;;;;;;5031844;28;20206;-64
2022/01/20 05:43:07;;;;;;;3.37;2.47;;;6.30;99.90;;;;;;5032273;28;20227;-64
2022/01/20 05:45:33;;;;;;;3.07;2.50;;;6.40;99.90;;;;;;5031840;28;20689;-64
2022/01/20 05:48:10;;;;;;;2.60;2.40;;;6.30;99.90;;;;;;5032045;28;20280;-64
2022/01/20 05:50:36;;;;;;;4.63;2.40;;;6.40;99.90;;;;;;5031477;28;20625;-64
2022/01/20 05:53:04;;;;;;;4.80;2.23;;;6.40;99.90;;;;;;5035096;28;20225;-64
2022/01/20 05:55:32;;;;;;;3.53;2.23;;;6.50;99.90;;;;;;5035142;28;20276;-64
2022/01/20 05:57:59;;;;;;;3.57;2.20;;;6.50;99.90;;;;;;5035632;28;20202;-64
2022/01/20 06:00:28;;;;;;;3.47;2.70;;;6.50;99.90;;;;;;5035253;28;20260;-64
2022/01/20 06:05:40;;;;;;;2.80;2.40;;;6.40;99.90;;;;;;5039851;28;20202;-64
2022/01/20 06:08:07;;;;;;;4.17;2.57;;;6.40;99.90;;;;;;5036444;28;20267;-64
2022/01/20 06:10:34;;;;;;;4.00;2.60;;;6.40;99.90;;;;;;5035155;28;20214;-65
2022/01/20 06:13:01;;;;;;;5.17;2.80;;;6.30;99.90;;;;;;5035442;28;20634;-63
2022/01/20 06:15:30;;;;;;;4.80;2.93;;;6.40;99.90;;;;;;5034979;28;20234;-64
2022/01/20 06:17:57;;;;;;;3.83;2.87;;;6.40;99.90;;;;;;5035045;28;20273;-65
2022/01/20 06:20:24;;;;;;;3.63;2.50;;;6.40;99.90;;;;;;5034413;28;20635;-65
2022/01/20 06:22:50;;;;;;;4.73;2.90;;;6.50;99.90;;;;;;5034471;28;20202;-64
2022/01/20 06:25:17;;;;;;;3.43;2.70;;;6.50;99.90;;;;;;5034906;28;20618;-64
2022/01/20 06:27:44;;;;;;;5.53;2.70;;;6.50;99.90;;;;;;5035103;28;20210;-64
2022/01/20 06:30:12;;;;;;;12.33;9.93;;;6.30;99.90;;;;;;5034862;28;20238;-64
2022/01/20 06:32:40;;;;;;;5.90;3.13;;;6.30;99.90;;;;;;5034491;28;20700;-65
2022/01/20 06:35:08;;;;;;;3.30;2.87;;;6.30;99.90;;;;;;5034588;28;20207;-64
2022/01/20 06:37:35;;;;;;;5.47;3.20;;;6.40;99.90;;;;;;5034264;28;20686;-64
2022/01/20 06:40:02;;;;;;;7.67;3.90;;;6.40;99.90;;;;;;5034729;28;20202;-64
2022/01/20 06:42:28;;;;;;;7.63;3.43;;;6.40;99.90;;;;;;5034388;28;20214;-64
2022/01/20 06:44:55;;;;;;;7.53;3.33;;;6.50;99.90;;;;;;5034276;28;20272;-64
2022/01/20 06:47:22;;;;;;;4.50;3.50;;;6.50;99.90;;;;;;5034159;28;20674;-65
2022/01/20 06:49:50;;;;;;;5.83;3.40;;;6.50;99.90;;;;;;5034020;28;20927;-64
2022/01/20 06:52:16;;;;;;;4.60;3.30;;;6.50;99.90;;;;;;5034048;28;20252;-64
2022/01/20 06:54:43;;;;;;;7.00;3.93;;;6.40;99.90;;;;;;5034164;28;20280;-64
2022/01/20 06:57:10;;;;;;;6.50;4.07;;;6.40;99.90;;;;;;5033789;28;20732;-64
2022/01/20 06:59:36;;;;;;;6.40;4.40;;;6.30;99.90;;;;;;5034024;28;20210;-64
2022/01/20 07:02:04;;;;;;;7.57;3.60;;;6.20;99.90;;;;;;5033589;28;20213;-64
2022/01/20 07:04:32;;;;;;;6.33;3.87;;;6.20;99.90;;;;;;5033850;28;20244;-64
2022/01/20 07:07:00;;;;;;;6.00;4.43;;;6.10;99.90;;;;;;5033982;28;20210;-64
2022/01/20 07:09:27;;;;;;;7.57;4.47;;;6.10;99.90;;;;;;5033881;28;20621;-64
2022/01/20 07:11:53;;;;;;;8.07;4.23;;;6.00;99.90;;;;;;5034313;28;20202;-64
2022/01/20 07:14:20;;;;;;;9.83;5.93;;;5.90;99.90;;;;;;5034129;28;20297;-64
2022/01/20 07:16:48;;;;;;;8.17;5.00;;;5.80;99.90;;;;;;5033744;28;20720;-64
2022/01/20 07:19:14;;;;;;;6.20;4.43;;;5.70;99.90;;;;;;5033982;28;20215;-64
2022/01/20 07:21:41;;;;;;;6.17;4.10;;;5.60;99.90;;;;;;5033751;28;20202;-65
2022/01/20 07:24:09;;;;;;;6.27;4.30;;;5.50;99.90;;;;;;5033694;28;20230;-64
2022/01/20 07:26:36;;;;;;;7.57;4.17;;;5.50;99.90;;;;;;5034125;28;20199;-65
2022/01/20 07:29:03;;;;;;;4.97;4.20;;;5.60;99.90;;;;;;5036963;28;20584;-64
2022/01/20 07:31:30;;;;;;;7.73;4.20;;;5.70;99.90;;;;;;5034245;28;20662;-64
2022/01/20 07:33:56;;;;;;;11.87;4.47;;;5.80;99.90;;;;;;5033879;28;20233;-64
2022/01/20 07:36:23;;;;;;;7.33;3.87;;;6.00;99.90;;;;;;5033178;28;20226;-63
2022/01/20 07:38:50;;;;;;;7.30;4.27;;;5.90;99.90;;;;;;5033634;28;20210;-64
2022/01/20 07:41:18;;;;;;;8.50;3.97;;;6.00;99.90;;;;;;5033199;28;20658;-64
2022/01/20 07:43:45;;;;;;;5.43;3.77;;;6.20;99.90;;;;;;5033204;28;20249;-65
2022/01/20 07:46:11;;;;;;;4.80;3.60;;;6.20;99.90;;;;;;5033498;28;20206;-65
2022/01/20 07:48:38;;;;;;;5.93;3.50;;;6.30;99.90;;;;;;5033477;28;20225;-64
2022/01/20 07:51:06;;;;;;;4.03;3.10;;;6.20;99.90;;;;;;5032734;28;20619;-65
2022/01/20 07:53:33;;;;;;;6.73;3.20;;;6.20;99.90;;;;;;5032934;28;20230;-64
2022/01/20 07:56:00;;;;;;;6.90;3.20;;;6.20;99.90;;;;;;5032734;28;20309;-64
2022/01/20 07:58:28;;;;;;;6.10;3.40;;;6.30;99.90;;;;;;5032466;28;20206;-64
2022/01/20 08:00:55;;;;;;;5.50;3.00;;;6.40;99.90;;;;;;5032548;28;20217;-64
2022/01/20 08:03:22;;;;;;;5.07;3.20;;;6.50;99.90;;;;;;5032615;28;20242;-64
2022/01/20 08:05:48;;;;;;;8.60;5.13;;;6.50;99.90;;;;;;5032446;28;20241;-65
2022/01/20 08:08:15;;;;;;;4.40;3.03;;;6.70;99.90;;;;;;5032506;28;20272;-64
2022/01/20 08:10:42;;;;;;;5.60;3.60;;;6.60;99.90;;;;;;5032574;28;20210;-64
2022/01/20 08:13:09;;;;;;;9.77;3.53;;;6.60;99.90;;;;;;5032440;28;20659;-65
2022/01/20 08:15:37;;;;;;;6.37;3.43;;;6.70;99.90;;;;;;5032106;28;20260;-64
2022/01/20 08:18:04;;;;;;;6.77;3.33;;;6.70;99.90;;;;;;5032764;28;20284;-64
2022/01/20 08:20:31;;;;;;;8.60;3.67;;;6.70;99.90;;;;;;5032128;28;20218;-64
2022/01/20 08:22:58;;;;;;;6.23;3.50;;;6.80;99.90;;;;;;5032446;28;20206;-64
2022/01/20 08:25:26;;;;;;;8.80;3.57;;;6.80;99.90;;;;;;5032474;28;20239;-64
2022/01/20 08:27:53;;;;;;;8.00;3.90;;;6.80;99.90;;;;;;5032767;28;20206;-64
2022/01/20 08:30:22;;;;;;;4.93;3.50;;;7.00;99.90;;;;;;5032729;28;20206;-63
2022/01/20 08:32:50;;;;;;;7.50;3.73;;;7.10;99.90;;;;;;5031949;28;20624;-64
2022/01/20 08:35:18;;;;;;;6.20;3.53;;;7.10;99.90;;;;;;5032388;28;20221;-64
2022/01/20 08:37:46;;;;;;;8.40;3.70;;;7.10;99.90;;;;;;5032232;28;20226;-64
2022/01/20 08:40:16;;;;;;;7.73;3.50;;;7.10;99.90;;;;;;5032639;28;20292;-65
2022/01/20 08:42:44;;;;;;;9.23;3.80;;;7.00;99.90;;;;;;5032143;28;20202;-65
2022/01/20 08:45:13;;;;;;;8.00;3.60;;;7.00;99.90;;;;;;5033479;28;20260;-64
2022/01/20 08:47:40;;;;;;;5.90;3.33;;;7.10;99.90;;;;;;5038877;28;20198;-65
2022/01/20 08:50:09;;;;;;;6.80;4.07;;;7.20;99.90;;;;;;5032420;28;20712;-65
2022/01/20 08:52:36;;;;;;;6.43;3.70;;;7.20;99.90;;;;;;5032768;28;20492;-64
2022/01/20 08:55:04;;;;;;;9.23;4.03;;;7.20;99.90;;;;;;5032312;28;20279;-64
2022/01/20 08:57:31;;;;;;;9.50;4.70;;;7.30;99.90;;;;;;5032126;28;20276;-64
2022/01/20 08:59:58;;;;;;;9.80;3.77;;;7.30;99.90;;;;;;5032155;28;20210;-64
2022/01/20 09:02:24;;;;;;;6.17;3.37;;;7.40;99.90;;;;;;5032049;28;20218;-64
2022/01/20 09:04:51;;;;;;;9.47;3.67;;;7.40;99.90;;;;;;5031825;28;20238;-64
2022/01/20 09:07:20;;;;;;;7.57;3.40;;;7.50;99.90;;;;;;5031986;28;20206;-64
2022/01/20 09:09:48;;;;;;;11.57;4.67;;;7.40;99.90;;;;;;5032507;28;20206;-64
2022/01/20 09:15:27;;;;;;;6.17;3.43;;;7.50;99.90;;;;;;5031784;28;20209;-64
2022/01/20 09:17:53;;;;;;;6.87;3.47;;;7.40;99.90;;;;;;5031662;28;20240;-64
2022/01/20 09:20:20;;;;;;;7.57;3.40;;;7.40;99.90;;;;;;5031815;28;20209;-64
2022/01/20 09:22:48;;;;;;;9.10;3.33;;;7.40;99.90;;;;;;5031590;28;20214;-64
2022/01/20 09:25:16;;;;;;;6.77;3.33;;;7.60;99.90;;;;;;5032189;28;20210;-64
2022/01/20 09:27:43;;;;;;;8.43;3.73;;;7.80;99.90;;;;;;5035864;28;20293;-64
2022/01/20 09:30:14;;;;;;;7.13;3.50;;;8.10;99.90;;;;;;5035854;28;20206;-63
2022/01/20 09:32:41;;;;;;;6.93;3.33;;;8.10;99.90;;;;;;5035511;28;20246;-64
2022/01/20 09:35:08;;;;;;;6.63;3.87;;;8.00;99.90;;;;;;5035568;28;20206;-64
2022/01/20 09:37:38;;;;;;;14.90;6.97;;;7.90;99.90;;;;;;5035510;28;20264;-64
2022/01/20 09:40:10;;;;;;;9.07;3.63;;;7.80;99.90;;;;;;5036153;28;20210;-64
2022/01/20 09:42:37;;;;;;;10.50;4.07;;;7.80;99.90;;;;;;5035098;28;20666;-64
2022/01/20 09:45:05;;;;;;;5.83;3.20;;;7.90;99.90;;;;;;5035296;28;20791;-65
2022/01/20 09:47:32;;;;;;;9.10;3.63;;;8.00;99.90;;;;;;5035371;28;20210;-64
2022/01/20 09:49:58;;;;;;;6.63;3.40;;;8.10;99.90;;;;;;5035422;28;20256;-64
2022/01/20 09:52:27;;;;;;;9.07;4.07;;;8.10;99.90;;;;;;5035092;28;20210;-65
2022/01/20 09:54:54;;;;;;;7.20;3.37;;;8.20;99.90;;;;;;5035159;28;20317;-64
2022/01/20 09:57:22;;;;;;;9.87;3.70;;;8.10;99.90;;;;;;5034889;28;20222;-64
2022/01/20 09:59:50;;;;;;;6.73;3.90;;;8.30;99.90;;;;;;5035246;28;20205;-64
2022/01/20 10:02:19;;;;;;;8.20;3.77;;;8.40;99.90;;;;;;5035019;28;20210;-64
2022/01/20 10:04:46;;;;;;;8.87;3.47;;;8.60;99.90;;;;;;5034874;28;20273;-64
2022/01/20 10:07:14;;;;;;;7.83;3.73;;;8.70;99.90;;;;;;5035253;28;20217;-64
2022/01/20 10:09:45;;;;;;;7.40;3.60;;;8.70;99.90;;;;;;5034672;28;20206;-64
2022/01/20 10:12:14;;;;;;;10.37;3.60;;;8.80;99.90;;;;;;5035069;28;20206;-64
2022/01/20 10:14:44;;;;;;;9.67;3.20;;;8.70;99.90;;;;;;5034955;28;20317;-64
2022/01/20 10:17:19;;;;;;;8.20;3.73;;;8.70;99.90;;;;;;5034613;28;20226;-64
2022/01/20 10:19:46;;;;;;;9.97;3.30;;;8.70;99.90;;;;;;5034994;28;20492;-67
2022/01/20 10:22:15;;;;;;;8.00;3.60;;;8.70;99.90;;;;;;5033328;28;20209;-63
2022/01/20 10:24:43;;;;;;;9.77;3.80;;;8.60;99.90;;;;;;5038594;28;20309;-63
2022/01/20 10:27:12;;;;;;;11.30;5.40;;;8.50;99.90;;;;;;5054321;28;20201;-63
2022/01/20 10:29:39;;;;;;;9.47;3.83;;;8.40;99.90;;;;;;5054280;28;20267;-63
2022/01/20 10:32:12;;;;;;;10.30;3.50;;;8.50;99.90;;;;;;5053832;28;20213;-63
2022/01/20 10:34:38;;;;;;;7.77;3.33;;;8.30;99.90;;;;;;5054005;28;20508;-63
2022/01/20 10:37:13;;;;;;;12.07;4.33;;;8.40;99.90;;;;;;5053365;28;20671;-63
2022/01/20 10:39:43;;;;;;;7.83;3.70;;;8.60;99.90;;;;;;5054136;28;20204;-64
2022/01/20 10:42:11;;;;;;;14.57;5.73;;;8.80;99.90;;;;;;5053880;28;20205;-63
2022/01/20 10:44:42;;;;;;;9.70;3.87;;;8.90;99.90;;;;;;5053809;28;20230;-62
2022/01/20 10:47:14;;;;;;;7.87;3.20;;;9.30;99.90;;;;;;5053791;28;20208;-62
2022/01/20 10:49:42;;;;;;;9.13;3.30;;;9.40;99.90;;;;;;5054192;28;20209;-66
2022/01/20 10:52:11;;;;;;;12.80;4.30;;;9.20;99.90;;;;;;5054355;28;20213;-65
2022/01/20 10:54:40;;;;;;;9.37;3.40;;;9.20;99.90;;;;;;5053990;28;20226;-63
2022/01/20 10:57:08;;;;;;;10.87;3.67;;;9.00;99.90;;;;;;5053645;28;20729;-63
2022/01/20 10:59:46;;;;;;;10.63;3.53;;;8.90;99.90;;;;;;5053813;28;20300;-62
2022/01/20 11:02:14;;;;;;;10.10;3.30;;;8.80;99.90;;;;;;5053753;28;20217;-64
2022/01/20 11:04:41;;;;;;;7.93;2.77;;;8.60;99.90;;;;;;5076075;22;20570;-59
2022/01/20 11:07:09;;;;;;;9.70;4.37;;;8.60;99.90;;;;;;5053420;28;20672;-57
2022/01/20 11:09:41;;;;;;;9.93;3.20;;;8.50;99.90;;;;;;5053472;28;20205;-57
2022/01/20 11:12:08;;;;;;;9.77;3.23;;;8.60;99.90;;;;;;5052921;28;20228;-57
2022/01/20 11:14:35;;;;;;;7.07;3.07;;;8.70;99.90;;;;;;5053124;28;20232;-57
2022/01/20 11:17:04;;;;;;;8.83;2.87;;;8.80;99.90;;;;;;5053030;28;20225;-58
2022/01/20 11:19:36;;;;;;;9.73;3.30;;;8.80;99.90;;;;;;5053355;28;20205;-57
2022/01/20 11:22:08;;;;;;;11.00;3.50;;;8.80;99.90;;;;;;5052892;28;20259;-58
2022/01/20 11:24:37;;;;;;;11.47;5.37;;;8.90;99.90;;;;;;5052810;28;20228;-57
2022/01/20 11:27:05;;;;;;;7.67;3.40;;;9.00;99.90;;;;;;5053042;28;20252;-58
2022/01/20 11:29:41;;;;;;;11.97;3.83;;;9.00;99.90;;;;;;5053221;28;20210;-57
2022/01/20 11:32:17;;;;;;;8.60;3.37;;;8.90;99.90;;;;;;5052726;28;20292;-58
2022/01/20 11:34:59;;;;;;;9.83;3.20;;;8.80;99.90;;;;;;5052963;28;20304;-58
2022/01/20 11:37:26;;;;;;;8.63;3.27;;;8.80;99.90;;;;;;5052714;28;20228;-58
2022/01/20 11:39:54;;;;;;;7.23;3.77;;;8.60;99.90;;;;;;5052908;28;20213;-58
2022/01/20 11:42:23;;;;;;;6.37;3.10;;;8.50;99.90;;;;;;5052708;28;20209;-57
2022/01/20 11:44:50;;;;;;;8.47;3.67;;;8.60;99.90;;;;;;5052543;28;20252;-58
2022/01/20 11:47:17;;;;;;;7.63;2.90;;;8.70;99.90;;;;;;5052276;28;20201;-57
2022/01/20 11:49:44;;;;;;;7.93;3.20;;;8.60;99.90;;;;;;5051144;28;20209;-58
2022/01/20 11:52:23;;;;;;;13.20;3.40;;;8.70;99.90;;;;;;5052103;28;20205;-58
2022/01/20 11:54:50;;;;;;;5.67;2.80;;;8.80;99.90;;;;;;5052394;28;20249;-57
2022/01/20 11:57:22;;;;;;;8.23;3.30;;;8.70;99.90;;;;;;5052488;28;20229;-58
2022/01/20 11:59:55;;;;;;;9.07;3.60;;;8.60;99.90;;;;;;5052986;28;20205;-58
2022/01/20 12:02:28;;;;;;;6.67;3.23;;;8.60;99.90;;;;;;5056430;28;20237;-57
2022/01/20 12:04:55;;;;;;;9.13;3.13;;;8.50;99.90;;;;;;5053350;28;20229;-58
2022/01/20 12:07:29;;;;;;;11.77;3.43;;;8.50;99.90;;;;;;5052372;28;20213;-58
2022/01/20 12:10:07;;;;;;;4.73;2.33;;;8.40;99.90;;;;;;5052217;28;20214;-58
2022/01/20 12:12:34;;;;;;;6.77;2.77;;;8.20;99.90;;;;;;5051525;28;20818;-58
2022/01/20 12:15:09;;;;;;;8.00;3.00;;;7.90;99.90;;;;;;5052357;28;20232;-58
2022/01/20 12:17:37;;;;;;;4.20;2.13;;;7.40;99.90;;;;;;5052122;28;20257;-58
2022/01/20 12:20:06;;;;;;;5.93;2.20;;;6.80;99.90;;;;;;5052166;28;20305;-58
2022/01/20 12:22:40;;;;;;;8.43;3.43;;;6.50;99.90;;;;;;5051937;28;20308;-58
2022/01/20 12:25:07;;;;;;;5.50;2.37;;;6.30;99.90;;;;;;5051949;28;20252;-58
2022/01/20 12:27:34;;;;;;;7.57;3.73;;;6.40;99.90;;;;;;5052124;28;20745;-58
2022/01/20 12:30:00;;;;;;;3.23;1.70;;;6.40;99.90;;;;;;5052465;28;20216;-58
2022/01/20 12:32:27;;;;;;;5.70;1.93;;;6.50;99.90;;;;;;5051879;28;20212;-58
2022/01/20 12:34:58;;;;;;;6.43;1.40;;;6.50;99.90;;;;;;5051959;28;20229;-58
2022/01/20 12:37:34;;;;;;;7.43;1.80;;;6.50;99.90;;;;;;5051552;28;20708;-58
2022/01/20 12:40:01;;;;;;;6.07;1.90;;;6.60;99.90;;;;;;5052277;28;20209;-58
2022/01/20 12:42:34;;;;;;;5.07;1.87;;;6.70;99.90;;;;;;5052120;28;20206;-58
2022/01/20 12:45:03;;;;;;;6.87;2.30;;;6.80;99.90;;;;;;5052301;28;20226;-58
2022/01/20 12:47:30;;;;;;;6.70;2.73;;;6.70;99.90;;;;;;5052010;28;20560;-57
2022/01/20 12:49:58;;;;;;;7.67;2.10;;;6.70;99.90;;;;;;5052034;28;20218;-58
2022/01/20 12:52:25;;;;;;;4.50;2.17;;;6.70;99.90;;;;;;5051840;28;20615;-58
2022/01/20 12:54:53;;;;;;;5.43;2.37;;;6.80;99.90;;;;;;5051860;28;20275;-58
2022/01/20 12:57:21;;;;;;;27.03;14.40;;;6.80;99.90;;;;;;5051719;28;20351;-58
2022/01/20 12:59:48;;;;;;;6.90;2.40;;;6.80;99.90;;;;;;5051390;28;20676;-58
2022/01/20 13:02:19;;;;;;;6.70;1.90;;;6.80;99.90;;;;;;5051523;28;20212;-58
2022/01/20 13:04:48;;;;;;;5.03;1.83;;;6.90;99.90;;;;;;5051690;28;20265;-58
2022/01/20 13:07:17;;;;;;;7.10;1.77;;;6.90;99.90;;;;;;5051808;28;20563;-58
2022/01/20 13:09:48;;;;;;;4.23;1.87;;;7.00;99.90;;;;;;5051707;28;20209;-58
2022/01/20 13:12:18;;;;;;;8.27;2.17;;;7.00;99.90;;;;;;5051572;28;20588;-58
2022/01/20 13:14:46;;;;;;;9.83;3.77;;;6.90;99.90;;;;;;5052128;28;20229;-58
2022/01/20 13:17:19;;;;;;;6.67;2.17;;;6.80;99.90;;;;;;5051576;28;20224;-58
2022/01/20 13:19:48;;;;;;;6.53;2.07;;;6.90;99.90;;;;;;5051608;28;20756;-58
2022/01/20 13:22:24;;;;;;;6.47;2.27;;;6.90;99.90;;;;;;5051550;28;20210;-58
2022/01/20 13:24:51;;;;;;;7.03;1.87;;;7.00;99.90;;;;;;5051343;28;20291;-58
2022/01/20 13:27:20;;;;;;;8.60;2.13;;;7.00;99.90;;;;;;5051303;28;20217;-58
2022/01/20 13:29:49;;;;;;;4.63;1.90;;;7.00;99.90;;;;;;5051119;28;20248;-58
2022/01/20 13:32:16;;;;;;;8.50;2.80;;;7.00;99.90;;;;;;5051404;28;20248;-58
2022/01/20 13:34:53;;;;;;;7.00;1.73;;;7.00;99.90;;;;;;5051405;28;20229;-58
2022/01/20 13:37:20;;;;;;;7.30;2.40;;;6.90;99.90;;;;;;5051113;28;20217;-58
2022/01/20 13:39:47;;;;;;;6.13;1.93;;;6.80;99.90;;;;;;5051269;28;20208;-58
2022/01/20 13:42:30;;;;;;;7.50;2.10;;;6.70;99.90;;;;;;5050663;28;20696;-58
2022/01/20 13:45:13;;;;;;;9.47;2.23;;;6.60;99.90;;;;;;5051279;28;20225;-58
2022/01/20 13:47:48;;;;;;;7.43;2.70;;;6.60;99.90;;;;;;5051530;28;20508;-58
2022/01/20 13:50:17;;;;;;;4.33;2.10;;;6.80;99.90;;;;;;5051006;28;20201;-58